KQA601 HKMO-HKJK
Flight info
| Callsign | KQA601 |
|---|---|
| Flight time | 0h 44m |
| Altitude | 30000 |
| Route | NERAG1A UTIKU UQ315 UTEPI UTEPI1A |
| Aircraft | B738/M-SDE1E2E3FGHIJ2J3J4J5M1RWXYZ/LB1D1 |
Departure
| Time | 2026-04-21 18:02 |
|---|---|
| Airport | Moi International Airport (HKMO) |
Arrival
| Time | 2026-04-21 18:47 |
|---|---|
| Airport | Jomo Kenyatta International Airport (HKJK) |
| Time | Latitude | Longitude | Altitude | Speed | Heading |
|---|---|---|---|---|---|
| 2026-04-21 17:35 | -4.03070 | 39.60274 | 206 ft | 0 kts | 118° |
| 2026-04-21 17:49 | -4.03070 | 39.60273 | 204 ft | 1 kts | 118° |
| 2026-04-21 17:50 | -4.03058 | 39.60252 | 206 ft | 4 kts | 119° |
| 2026-04-21 17:50 | -4.03046 | 39.60231 | 214 ft | 4 kts | 118° |
| 2026-04-21 17:50 | -4.03040 | 39.60208 | 211 ft | 4 kts | 67° |
| 2026-04-21 17:50 | -4.03057 | 39.60191 | 213 ft | 3 kts | 29° |
| 2026-04-21 17:51 | -4.03064 | 39.60187 | 211 ft | 0 kts | 29° |
| 2026-04-21 17:55 | -4.03063 | 39.60188 | 204 ft | 2 kts | 29° |
| 2026-04-21 17:55 | -4.03019 | 39.60212 | 208 ft | 11 kts | 29° |
| 2026-04-21 17:55 | -4.02939 | 39.60207 | 210 ft | 11 kts | 318° |
| 2026-04-21 17:56 | -4.02897 | 39.60130 | 206 ft | 18 kts | 299° |
| 2026-04-21 17:56 | -4.02871 | 39.60088 | 204 ft | 12 kts | 301° |
| 2026-04-21 17:56 | -4.02814 | 39.60017 | 207 ft | 7 kts | 355° |
| 2026-04-21 17:56 | -4.02726 | 39.60050 | 212 ft | 20 kts | 28° |
| 2026-04-21 17:57 | -4.02621 | 39.60111 | 209 ft | 17 kts | 28° |
| 2026-04-21 17:57 | -4.02516 | 39.60171 | 213 ft | 17 kts | 30° |
| 2026-04-21 17:57 | -4.02414 | 39.60228 | 212 ft | 17 kts | 29° |
| 2026-04-21 17:57 | -4.02315 | 39.60283 | 204 ft | 16 kts | 29° |
| 2026-04-21 17:58 | -4.02221 | 39.60336 | 206 ft | 15 kts | 29° |
| 2026-04-21 17:58 | -4.02130 | 39.60387 | 204 ft | 15 kts | 29° |
| 2026-04-21 17:58 | -4.02042 | 39.60436 | 213 ft | 14 kts | 29° |
| 2026-04-21 17:58 | -4.01959 | 39.60482 | 209 ft | 13 kts | 29° |
| 2026-04-21 17:59 | -4.01879 | 39.60527 | 204 ft | 13 kts | 29° |
| 2026-04-21 17:59 | -4.01802 | 39.60570 | 204 ft | 13 kts | 29° |
| 2026-04-21 17:59 | -4.01727 | 39.60612 | 204 ft | 12 kts | 29° |
| 2026-04-21 17:59 | -4.01653 | 39.60653 | 207 ft | 12 kts | 29° |
| 2026-04-21 18:00 | -4.01582 | 39.60693 | 209 ft | 12 kts | 28° |
| 2026-04-21 18:00 | -4.01509 | 39.60729 | 209 ft | 12 kts | 19° |
| 2026-04-21 18:00 | -4.01428 | 39.60734 | 204 ft | 12 kts | 348° |
| 2026-04-21 18:00 | -4.01389 | 39.60719 | 207 ft | 0 kts | 328° |
| 2026-04-21 18:01 | -4.01360 | 39.60700 | 204 ft | 15 kts | 324° |
| 2026-04-21 18:01 | -4.01364 | 39.60615 | 205 ft | 15 kts | 221° |
| 2026-04-21 18:01 | -4.01479 | 39.60550 | 208 ft | 28 kts | 209° |
| 2026-04-21 18:02 | -4.01709 | 39.60421 | 204 ft | 60 kts | 209° |
| 2026-04-21 18:02 | -4.02360 | 39.60059 | 207 ft | 150 kts | 209° |
| 2026-04-21 18:02 | -4.03446 | 39.59470 | 701 ft | 185 kts | 207° |
| 2026-04-21 18:02 | -4.04563 | 39.58905 | 2068 ft | 172 kts | 212° |
| 2026-04-21 18:03 | -4.05293 | 39.57872 | 3131 ft | 204 kts | 251° |
| 2026-04-21 18:03 | -4.05206 | 39.56336 | 3541 ft | 243 kts | 282° |
| 2026-04-21 18:03 | -4.04650 | 39.54688 | 4265 ft | 252 kts | 287° |
| 2026-04-21 18:03 | -4.04070 | 39.53005 | 5085 ft | 258 kts | 286° |
| 2026-04-21 18:04 | -4.03530 | 39.51283 | 5918 ft | 261 kts | 284° |
| 2026-04-21 18:04 | -4.03032 | 39.49529 | 6723 ft | 264 kts | 283° |
| 2026-04-21 18:04 | -4.02559 | 39.47732 | 7438 ft | 268 kts | 283° |
| 2026-04-21 18:04 | -4.02107 | 39.45908 | 8207 ft | 272 kts | 282° |
| 2026-04-21 18:05 | -4.01664 | 39.44051 | 8951 ft | 276 kts | 282° |
| 2026-04-21 18:05 | -4.01224 | 39.42173 | 9730 ft | 279 kts | 282° |
| 2026-04-21 18:05 | -4.00798 | 39.40343 | 10373 ft | 283 kts | 282° |
| 2026-04-21 18:05 | -4.00271 | 39.38430 | 11046 ft | 287 kts | 294° |
| 2026-04-21 18:06 | -3.99116 | 39.36800 | 11714 ft | 289 kts | 313° |
| 2026-04-21 18:06 | -3.97736 | 39.35341 | 12373 ft | 292 kts | 315° |
| 2026-04-21 18:06 | -3.96288 | 39.33874 | 13020 ft | 296 kts | 316° |
| 2026-04-21 18:06 | -3.94828 | 39.32405 | 13670 ft | 299 kts | 316° |
| 2026-04-21 18:07 | -3.93355 | 39.30916 | 14237 ft | 303 kts | 316° |
| 2026-04-21 18:07 | -3.91875 | 39.29412 | 14800 ft | 306 kts | 316° |
| 2026-04-21 18:07 | -3.90378 | 39.27885 | 15370 ft | 309 kts | 315° |
| 2026-04-21 18:07 | -3.88869 | 39.26339 | 15931 ft | 312 kts | 315° |
| 2026-04-21 18:08 | -3.87348 | 39.24778 | 16480 ft | 314 kts | 315° |
| 2026-04-21 18:08 | -3.85818 | 39.23205 | 17017 ft | 318 kts | 315° |
| 2026-04-21 18:08 | -3.84265 | 39.21608 | 17546 ft | 320 kts | 315° |
| 2026-04-21 18:08 | -3.82707 | 39.20003 | 18069 ft | 323 kts | 315° |
| 2026-04-21 18:09 | -3.81133 | 39.18382 | 18522 ft | 326 kts | 315° |
| 2026-04-21 18:09 | -3.79542 | 39.16744 | 18948 ft | 329 kts | 315° |
| 2026-04-21 18:09 | -3.77949 | 39.15103 | 19396 ft | 331 kts | 315° |
| 2026-04-21 18:09 | -3.76333 | 39.13439 | 19840 ft | 333 kts | 316° |
| 2026-04-21 18:10 | -3.74707 | 39.11763 | 20270 ft | 336 kts | 316° |
| 2026-04-21 18:10 | -3.73077 | 39.10085 | 20692 ft | 338 kts | 316° |
| 2026-04-21 18:10 | -3.71451 | 39.08410 | 21103 ft | 341 kts | 316° |
| 2026-04-21 18:10 | -3.69772 | 39.06681 | 21518 ft | 343 kts | 316° |
| 2026-04-21 18:11 | -3.68105 | 39.04964 | 21906 ft | 345 kts | 316° |
| 2026-04-21 18:11 | -3.66425 | 39.03235 | 22271 ft | 348 kts | 316° |
| 2026-04-21 18:11 | -3.64757 | 39.01516 | 22655 ft | 350 kts | 316° |
| 2026-04-21 18:11 | -3.63059 | 38.99768 | 23012 ft | 352 kts | 316° |
| 2026-04-21 18:12 | -3.61349 | 38.98007 | 23352 ft | 354 kts | 316° |
| 2026-04-21 18:12 | -3.59626 | 38.96234 | 23669 ft | 356 kts | 316° |
| 2026-04-21 18:12 | -3.57899 | 38.94455 | 23914 ft | 357 kts | 316° |
| 2026-04-21 18:12 | -3.56160 | 38.92665 | 23930 ft | 359 kts | 316° |
| 2026-04-21 18:13 | -3.54418 | 38.90871 | 23935 ft | 357 kts | 316° |
| 2026-04-21 18:13 | -3.52692 | 38.89093 | 23941 ft | 357 kts | 316° |
| 2026-04-21 18:13 | -3.50962 | 38.87313 | 23942 ft | 357 kts | 316° |
| 2026-04-21 18:13 | -3.49232 | 38.85533 | 23946 ft | 357 kts | 316° |
| 2026-04-21 18:14 | -3.45764 | 38.81954 | 23947 ft | 358 kts | 316° |
| 2026-04-21 18:14 | -3.44034 | 38.80166 | 23945 ft | 358 kts | 316° |
| 2026-04-21 18:14 | -3.42302 | 38.78376 | 23949 ft | 358 kts | 316° |
| 2026-04-21 18:15 | -3.40575 | 38.76591 | 23950 ft | 358 kts | 316° |
| 2026-04-21 18:15 | -3.38840 | 38.74798 | 23949 ft | 358 kts | 315° |
| 2026-04-21 18:15 | -3.37108 | 38.73008 | 23949 ft | 357 kts | 316° |
| 2026-04-21 18:15 | -3.35380 | 38.71223 | 23954 ft | 357 kts | 316° |
| 2026-04-21 18:16 | -3.33654 | 38.69439 | 23954 ft | 357 kts | 315° |
| 2026-04-21 18:16 | -3.31925 | 38.67651 | 23953 ft | 357 kts | 316° |
| 2026-04-21 18:16 | -3.30196 | 38.65863 | 23951 ft | 357 kts | 315° |
| 2026-04-21 18:16 | -3.28468 | 38.64076 | 23953 ft | 357 kts | 315° |
| 2026-04-21 18:17 | -3.26742 | 38.62291 | 23957 ft | 357 kts | 315° |
| 2026-04-21 18:17 | -3.25022 | 38.60512 | 23953 ft | 357 kts | 315° |
| 2026-04-21 18:17 | -3.23294 | 38.58724 | 23954 ft | 357 kts | 315° |
| 2026-04-21 18:17 | -3.21569 | 38.56940 | 23954 ft | 356 kts | 315° |
| 2026-04-21 18:18 | -3.19844 | 38.55156 | 23936 ft | 358 kts | 315° |
| 2026-04-21 18:18 | -3.18091 | 38.53344 | 23933 ft | 368 kts | 315° |
| 2026-04-21 18:18 | -3.16268 | 38.51461 | 23931 ft | 385 kts | 315° |
| 2026-04-21 18:18 | -3.14359 | 38.49489 | 23958 ft | 404 kts | 315° |
| 2026-04-21 18:19 | -3.12365 | 38.47430 | 23972 ft | 420 kts | 315° |
| 2026-04-21 18:19 | -3.10297 | 38.45292 | 23978 ft | 434 kts | 315° |
| 2026-04-21 18:19 | -3.08174 | 38.43097 | 23974 ft | 446 kts | 315° |
| 2026-04-21 18:19 | -3.06018 | 38.40867 | 23972 ft | 456 kts | 315° |
| 2026-04-21 18:20 | -3.03758 | 38.38529 | 23967 ft | 464 kts | 315° |
| 2026-04-21 18:20 | -3.01506 | 38.36200 | 23963 ft | 468 kts | 315° |
| 2026-04-21 18:20 | -2.99280 | 38.33897 | 23954 ft | 465 kts | 315° |
| 2026-04-21 18:20 | -2.97005 | 38.31543 | 23955 ft | 464 kts | 315° |
| 2026-04-21 18:21 | -2.94798 | 38.29261 | 23962 ft | 464 kts | 315° |
| 2026-04-21 18:21 | -2.92550 | 38.26937 | 23962 ft | 463 kts | 315° |
| 2026-04-21 18:21 | -2.90309 | 38.24620 | 23966 ft | 463 kts | 315° |
| 2026-04-21 18:21 | -2.88074 | 38.22311 | 23966 ft | 463 kts | 315° |
| 2026-04-21 18:22 | -2.85833 | 38.19996 | 23968 ft | 463 kts | 315° |
| 2026-04-21 18:22 | -2.83591 | 38.17679 | 23970 ft | 463 kts | 315° |
| 2026-04-21 18:22 | -2.81348 | 38.15361 | 23970 ft | 463 kts | 315° |
| 2026-04-21 18:22 | -2.79112 | 38.13051 | 23974 ft | 463 kts | 315° |
| 2026-04-21 18:23 | -2.76871 | 38.10737 | 23976 ft | 463 kts | 315° |
| 2026-04-21 18:23 | -2.74616 | 38.08407 | 23984 ft | 463 kts | 315° |
| 2026-04-21 18:23 | -2.72377 | 38.06094 | 23981 ft | 463 kts | 315° |
| 2026-04-21 18:23 | -2.70142 | 38.03785 | 23984 ft | 463 kts | 315° |
| 2026-04-21 18:24 | -2.67891 | 38.01461 | 23985 ft | 464 kts | 315° |
| 2026-04-21 18:24 | -2.65650 | 37.99146 | 23988 ft | 464 kts | 315° |
| 2026-04-21 18:24 | -2.63402 | 37.96824 | 23993 ft | 464 kts | 315° |
| 2026-04-21 18:24 | -2.61156 | 37.94505 | 23996 ft | 464 kts | 315° |
| 2026-04-21 18:25 | -2.58911 | 37.92186 | 23996 ft | 464 kts | 315° |
| 2026-04-21 18:25 | -2.56668 | 37.89870 | 23995 ft | 464 kts | 315° |
| 2026-04-21 18:25 | -2.54460 | 37.87591 | 24001 ft | 464 kts | 315° |
| 2026-04-21 18:25 | -2.52174 | 37.85230 | 24004 ft | 464 kts | 315° |
| 2026-04-21 18:26 | -2.49926 | 37.82909 | 24006 ft | 464 kts | 315° |
| 2026-04-21 18:26 | -2.47683 | 37.80593 | 24001 ft | 464 kts | 315° |
| 2026-04-21 18:26 | -2.45467 | 37.78306 | 24008 ft | 464 kts | 315° |
| 2026-04-21 18:26 | -2.43194 | 37.75959 | 24005 ft | 463 kts | 315° |
| 2026-04-21 18:27 | -2.40982 | 37.73676 | 24012 ft | 463 kts | 315° |
| 2026-04-21 18:27 | -2.38710 | 37.71331 | 24006 ft | 463 kts | 315° |
| 2026-04-21 18:27 | -2.36497 | 37.69047 | 24008 ft | 463 kts | 315° |
| 2026-04-21 18:27 | -2.34257 | 37.66735 | 24012 ft | 463 kts | 315° |
| 2026-04-21 18:28 | -2.32015 | 37.64421 | 24013 ft | 463 kts | 315° |
| 2026-04-21 18:28 | -2.29772 | 37.62107 | 24016 ft | 463 kts | 315° |
| 2026-04-21 18:28 | -2.27529 | 37.59792 | 24018 ft | 464 kts | 315° |
| 2026-04-21 18:28 | -2.25283 | 37.57474 | 24020 ft | 464 kts | 315° |
| 2026-04-21 18:29 | -2.23040 | 37.55160 | 24023 ft | 464 kts | 315° |
| 2026-04-21 18:29 | -2.20795 | 37.52843 | 24022 ft | 464 kts | 315° |
| 2026-04-21 18:29 | -2.18553 | 37.50529 | 24027 ft | 464 kts | 315° |
| 2026-04-21 18:29 | -2.16327 | 37.48232 | 23915 ft | 454 kts | 315° |
| 2026-04-21 18:30 | -2.14154 | 37.45989 | 23243 ft | 447 kts | 315° |
| 2026-04-21 18:30 | -2.11991 | 37.43758 | 22310 ft | 446 kts | 315° |
| 2026-04-21 18:30 | -2.09836 | 37.41534 | 21413 ft | 445 kts | 315° |
| 2026-04-21 18:30 | -2.07690 | 37.39320 | 20640 ft | 440 kts | 315° |
| 2026-04-21 18:31 | -2.05577 | 37.37141 | 19959 ft | 434 kts | 315° |
| 2026-04-21 18:31 | -2.03560 | 37.34919 | 19244 ft | 430 kts | 307° |
| 2026-04-21 18:31 | -2.02128 | 37.32302 | 18535 ft | 428 kts | 295° |
| 2026-04-21 18:31 | -2.00909 | 37.29607 | 17805 ft | 423 kts | 295° |
| 2026-04-21 18:32 | -1.99716 | 37.26936 | 17065 ft | 418 kts | 295° |
| 2026-04-21 18:32 | -1.98532 | 37.24301 | 16371 ft | 413 kts | 295° |
| 2026-04-21 18:32 | -1.97350 | 37.21702 | 15674 ft | 408 kts | 295° |
| 2026-04-21 18:32 | -1.96172 | 37.19139 | 15006 ft | 404 kts | 295° |
| 2026-04-21 18:33 | -1.95014 | 37.16637 | 14345 ft | 400 kts | 296° |
| 2026-04-21 18:33 | -1.93833 | 37.14093 | 13688 ft | 396 kts | 296° |
| 2026-04-21 18:33 | -1.92676 | 37.11606 | 13355 ft | 395 kts | 296° |
| 2026-04-21 18:33 | -1.91533 | 37.09150 | 13231 ft | 395 kts | 296° |
| 2026-04-21 18:34 | -1.90377 | 37.06666 | 13124 ft | 394 kts | 296° |
| 2026-04-21 18:34 | -1.89223 | 37.04185 | 13089 ft | 392 kts | 296° |
| 2026-04-21 18:34 | -1.88073 | 37.01713 | 13091 ft | 392 kts | 296° |
| 2026-04-21 18:34 | -1.86926 | 36.99246 | 13086 ft | 393 kts | 296° |
| 2026-04-21 18:35 | -1.86146 | 36.97569 | 13082 ft | 393 kts | 296° |
| 2026-04-21 18:35 | -1.84621 | 36.94290 | 13084 ft | 393 kts | 296° |
| 2026-04-21 18:35 | -1.83870 | 36.92643 | 13081 ft | 393 kts | 294° |
| 2026-04-21 18:35 | -1.82289 | 36.89366 | 13089 ft | 392 kts | 301° |
| 2026-04-21 18:36 | -1.80766 | 36.87112 | 13088 ft | 391 kts | 309° |
| 2026-04-21 18:36 | -1.79609 | 36.85738 | 13097 ft | 390 kts | 314° |
| 2026-04-21 18:36 | -1.77677 | 36.83834 | 13083 ft | 388 kts | 319° |
| 2026-04-21 18:36 | -1.75709 | 36.82041 | 12679 ft | 380 kts | 320° |
| 2026-04-21 18:37 | -1.73751 | 36.80287 | 12058 ft | 377 kts | 320° |
| 2026-04-21 18:37 | -1.71812 | 36.78556 | 11624 ft | 367 kts | 320° |
| 2026-04-21 18:37 | -1.69953 | 36.76897 | 11442 ft | 351 kts | 320° |
| 2026-04-21 18:37 | -1.68168 | 36.75302 | 11306 ft | 336 kts | 320° |
| 2026-04-21 18:38 | -1.66465 | 36.73780 | 11179 ft | 322 kts | 320° |
| 2026-04-21 18:38 | -1.64872 | 36.72354 | 11075 ft | 311 kts | 320° |
| 2026-04-21 18:38 | -1.63279 | 36.70926 | 10964 ft | 305 kts | 320° |
| 2026-04-21 18:38 | -1.61705 | 36.69516 | 10886 ft | 304 kts | 320° |
| 2026-04-21 18:39 | -1.60131 | 36.68113 | 10805 ft | 302 kts | 321° |
| 2026-04-21 18:39 | -1.58457 | 36.66898 | 10708 ft | 294 kts | 331° |
| 2026-04-21 18:39 | -1.56641 | 36.65998 | 10608 ft | 288 kts | 341° |
| 2026-04-21 18:39 | -1.54797 | 36.65450 | 10514 ft | 265 kts | 351° |
| 2026-04-21 18:40 | -1.53054 | 36.65577 | 10354 ft | 247 kts | 26° |
| 2026-04-21 18:40 | -1.51681 | 36.66530 | 10289 ft | 238 kts | 45° |
| 2026-04-21 18:40 | -1.50477 | 36.67691 | 10200 ft | 242 kts | 47° |
| 2026-04-21 18:40 | -1.49346 | 36.68919 | 10098 ft | 238 kts | 52° |
| 2026-04-21 18:41 | -1.48331 | 36.70195 | 9999 ft | 231 kts | 56° |
| 2026-04-21 18:41 | -1.47388 | 36.71469 | 9968 ft | 227 kts | 56° |
| 2026-04-21 18:41 | -1.46451 | 36.72758 | 9701 ft | 229 kts | 56° |
| 2026-04-21 18:41 | -1.45531 | 36.74026 | 9402 ft | 219 kts | 56° |
| 2026-04-21 18:42 | -1.44681 | 36.75195 | 9146 ft | 203 kts | 56° |
| 2026-04-21 18:42 | -1.43889 | 36.76285 | 8896 ft | 185 kts | 57° |
| 2026-04-21 18:42 | -1.43154 | 36.77296 | 8667 ft | 170 kts | 57° |
| 2026-04-21 18:42 | -1.42483 | 36.78222 | 8459 ft | 166 kts | 57° |
| 2026-04-21 18:43 | -1.41809 | 36.79152 | 8260 ft | 164 kts | 57° |
| 2026-04-21 18:43 | -1.41144 | 36.80067 | 8065 ft | 164 kts | 57° |
| 2026-04-21 18:43 | -1.40472 | 36.80994 | 7853 ft | 165 kts | 56° |
| 2026-04-21 18:43 | -1.39795 | 36.81925 | 7649 ft | 162 kts | 57° |
| 2026-04-21 18:44 | -1.39139 | 36.82828 | 7449 ft | 164 kts | 57° |
| 2026-04-21 18:44 | -1.38471 | 36.83749 | 7263 ft | 165 kts | 56° |
| 2026-04-21 18:44 | -1.37798 | 36.84675 | 7049 ft | 164 kts | 56° |
| 2026-04-21 18:44 | -1.37134 | 36.85589 | 6848 ft | 163 kts | 56° |
| 2026-04-21 18:45 | -1.36458 | 36.86520 | 6647 ft | 165 kts | 56° |
| 2026-04-21 18:45 | -1.35795 | 36.87432 | 6445 ft | 159 kts | 56° |
| 2026-04-21 18:45 | -1.35168 | 36.88295 | 6270 ft | 150 kts | 57° |
| 2026-04-21 18:45 | -1.34573 | 36.89116 | 6049 ft | 147 kts | 55° |
| 2026-04-21 18:46 | -1.33975 | 36.89938 | 5841 ft | 147 kts | 55° |
| 2026-04-21 18:46 | -1.33372 | 36.90772 | 5667 ft | 150 kts | 53° |
| 2026-04-21 18:46 | -1.32758 | 36.91628 | 5390 ft | 151 kts | 52° |
| 2026-04-21 18:46 | -1.32160 | 36.92440 | 5321 ft | 132 kts | 54° |
| 2026-04-21 18:47 | -1.31699 | 36.93086 | 5304 ft | 81 kts | 55° |
| 2026-04-21 18:47 | -1.31567 | 36.93299 | 5307 ft | 19 kts | 95° |
| 2026-04-21 18:47 | -1.31631 | 36.93375 | 5305 ft | 10 kts | 144° |
| 2026-04-21 18:47 | -1.31685 | 36.93415 | 5308 ft | 10 kts | 143° |
| 2026-04-21 18:48 | -1.31739 | 36.93453 | 5305 ft | 9 kts | 144° |
| 2026-04-21 18:48 | -1.31774 | 36.93475 | 5306 ft | 9 kts | 157° |
| 2026-04-21 18:49 | -1.31920 | 36.93341 | 5312 ft | 8 kts | 234° |
| 2026-04-21 18:49 | -1.31955 | 36.93294 | 5310 ft | 8 kts | 233° |
| 2026-04-21 18:49 | -1.31977 | 36.93264 | 5314 ft | 8 kts | 233° |
| 2026-04-21 18:49 | -1.32010 | 36.93219 | 5312 ft | 8 kts | 234° |
| 2026-04-21 18:50 | -1.32052 | 36.93162 | 5315 ft | 7 kts | 233° |
| 2026-04-21 18:50 | -1.32082 | 36.93121 | 5313 ft | 7 kts | 233° |